createdAt,value
2023-05-30T00:00:08.463Z,94989.97
2023-05-30T00:02:37.988Z,94981.34
2023-05-30T00:05:09.478Z,94982.84
2023-05-30T00:07:38.094Z,94955.84
2023-05-30T00:10:07.938Z,94993.16
2023-05-30T00:12:36.533Z,94992.97
2023-05-30T00:15:05.457Z,94992.81
2023-05-30T00:17:37.012Z,94986.59
2023-05-30T00:20:10.485Z,94992.59
2023-05-30T00:22:39.656Z,94993.34
2023-05-30T00:25:08.228Z,94993.69
2023-05-30T00:27:36.438Z,94998.59
2023-05-30T00:30:05.243Z,94988.94
2023-05-30T00:32:33.476Z,94994.09
2023-05-30T00:35:03.202Z,94985.44
2023-05-30T00:37:35.129Z,94999.13
2023-05-30T00:40:03.412Z,95000.84
2023-05-30T00:42:31.581Z,95004.88
2023-05-30T00:44:59.662Z,95007.34
2023-05-30T00:47:29.203Z,95014.38
2023-05-30T00:49:58.161Z,94993.38
2023-05-30T00:52:26.250Z,95012.50
2023-05-30T00:54:56.528Z,95015.22
2023-05-30T00:57:24.899Z,95014.03
2023-05-30T00:59:53.116Z,95009.13
2023-05-30T01:02:21.332Z,95013.63
2023-05-30T01:04:50.067Z,95006.69
2023-05-30T01:07:18.419Z,94999.19
2023-05-30T01:09:46.877Z,94985.13
2023-05-30T01:12:23.892Z,94987.00
2023-05-30T01:15:10.071Z,95006.47
2023-05-30T01:17:47.693Z,94998.69
2023-05-30T01:20:19.807Z,95004.81
2023-05-30T01:23:10.151Z,94997.75
2023-05-30T01:26:01.251Z,94999.00
2023-05-30T01:28:34.907Z,94996.91
2023-05-30T01:31:03.793Z,94993.75
2023-05-30T01:33:33.682Z,94981.25
2023-05-30T01:36:01.891Z,94985.31
2023-05-30T01:38:30.458Z,94997.50
2023-05-30T01:41:01.567Z,94986.78
2023-05-30T01:43:42.136Z,94998.31
2023-05-30T01:46:23.666Z,94997.84
2023-05-30T01:49:03.914Z,94993.00
2023-05-30T01:51:38.735Z,94999.25
2023-05-30T01:54:11.511Z,94984.25
2023-05-30T01:56:41.442Z,94993.16
2023-05-30T01:59:12.013Z,94999.81
2023-05-30T02:01:42.042Z,94997.19
2023-05-30T02:04:10.254Z,95013.78
2023-05-30T02:06:39.018Z,94982.25
2023-05-30T02:09:07.382Z,95006.84
2023-05-30T02:11:35.381Z,95018.66
2023-05-30T02:14:03.864Z,95027.44
2023-05-30T02:16:33.885Z,95028.38
2023-05-30T02:19:08.072Z,95022.03
2023-05-30T02:21:37.104Z,95014.75
2023-05-30T02:24:06.029Z,95020.44
2023-05-30T02:26:36.657Z,95016.50
2023-05-30T02:29:06.209Z,95014.59
2023-05-30T02:31:36.244Z,95021.81
2023-05-30T02:34:04.469Z,95021.44
2023-05-30T02:36:34.160Z,95015.28
2023-05-30T02:39:07.757Z,95009.09
2023-05-30T02:41:37.962Z,95009.31
2023-05-30T02:44:08.122Z,95016.22
2023-05-30T02:46:37.998Z,95021.44
2023-05-30T02:49:06.662Z,95017.50
2023-05-30T02:51:34.749Z,95015.78
2023-05-30T02:54:02.756Z,95003.22
2023-05-30T02:56:30.972Z,95017.88
2023-05-30T02:59:00.641Z,95009.94
2023-05-30T03:01:29.256Z,95014.13
2023-05-30T03:03:59.597Z,95005.34
2023-05-30T03:06:29.235Z,94995.69
2023-05-30T03:09:02.608Z,95008.44
2023-05-30T03:11:30.985Z,95008.50
2023-05-30T03:13:59.142Z,94986.34
2023-05-30T03:16:28.058Z,95015.03
2023-05-30T03:18:56.308Z,95013.06
2023-05-30T03:21:28.428Z,95017.97
2023-05-30T03:23:56.769Z,95006.94
2023-05-30T03:26:25.089Z,94990.72
2023-05-30T03:28:53.339Z,95010.63
2023-05-30T03:31:21.977Z,95012.47
2023-05-30T03:33:50.249Z,95019.94
2023-05-30T03:36:18.361Z,94976.03
2023-05-30T03:38:47.910Z,95014.75
2023-05-30T03:41:16.833Z,94968.97
2023-05-30T03:43:45.044Z,95034.22
2023-05-30T03:46:13.441Z,95037.41
2023-05-30T03:48:41.515Z,95041.16
2023-05-30T03:51:10.498Z,95022.78
2023-05-30T03:53:38.508Z,95035.19
2023-05-30T03:56:08.861Z,95031.28
2023-05-30T03:58:37.161Z,95011.00
2023-05-30T04:01:05.780Z,95028.25
2023-05-30T04:03:34.173Z,95027.50
2023-05-30T04:06:02.474Z,95033.44
2023-05-30T04:08:30.504Z,95026.19
2023-05-30T04:10:58.773Z,95032.38
2023-05-30T04:13:28.622Z,95038.47
2023-05-30T04:15:57.025Z,95037.47
2023-05-30T04:18:25.153Z,95039.91
2023-05-30T04:20:53.223Z,95049.84
2023-05-30T04:23:22.057Z,95050.03
2023-05-30T04:25:50.059Z,95054.91
2023-05-30T04:28:21.094Z,95050.81
2023-05-30T04:30:50.702Z,95030.53
2023-05-30T04:33:19.865Z,95063.34
2023-05-30T04:35:48.590Z,95068.59
2023-05-30T04:38:17.575Z,95069.34
2023-05-30T04:40:49.647Z,95073.34
2023-05-30T04:43:21.170Z,95048.47
2023-05-30T04:45:59.672Z,95069.91
2023-05-30T04:48:36.415Z,95071.03
2023-05-30T04:51:05.044Z,95068.22
2023-05-30T04:53:33.017Z,95076.28
2023-05-30T04:56:01.186Z,95060.53
2023-05-30T04:58:29.286Z,95064.28
2023-05-30T05:01:00.331Z,95084.56
2023-05-30T05:03:28.853Z,95078.00
2023-05-30T05:05:57.225Z,95079.84
2023-05-30T05:08:27.829Z,95088.13
2023-05-30T05:10:56.012Z,95056.19
2023-05-30T05:13:24.146Z,95074.56
2023-05-30T05:15:52.444Z,95057.91
2023-05-30T05:18:22.422Z,95093.72
2023-05-30T05:20:50.821Z,95099.31
2023-05-30T05:23:19.177Z,95094.81
2023-05-30T05:25:47.707Z,95091.97
2023-05-30T05:28:17.334Z,95019.41
2023-05-30T05:30:45.658Z,95101.09
2023-05-30T05:33:14.726Z,95098.66
2023-05-30T05:35:46.572Z,95104.53
2023-05-30T05:38:15.747Z,95103.34
2023-05-30T05:40:44.020Z,95094.16
2023-05-30T05:43:12.492Z,95095.84
2023-05-30T05:45:40.795Z,95082.75
2023-05-30T05:48:10.482Z,95097.03
2023-05-30T05:50:38.815Z,95099.00
2023-05-30T05:53:08.527Z,95096.38
2023-05-30T05:55:36.684Z,95100.72
2023-05-30T05:58:05.069Z,95104.97
2023-05-30T06:00:36.264Z,95104.56
2023-05-30T06:03:07.808Z,95098.56
2023-05-30T06:05:37.007Z,95095.28
2023-05-30T06:08:05.150Z,95094.06
2023-05-30T06:10:34.563Z,95090.63
2023-05-30T06:13:02.952Z,95095.56
2023-05-30T06:15:31.296Z,95097.72
2023-05-30T06:17:59.974Z,95102.13
2023-05-30T06:20:28.088Z,95110.06
2023-05-30T06:22:56.462Z,95113.03
2023-05-30T06:25:27.316Z,95123.59
2023-05-30T06:27:57.431Z,95125.00
2023-05-30T06:30:26.059Z,95120.38
2023-05-30T06:32:54.402Z,95121.53
2023-05-30T06:35:25.482Z,95123.25
2023-05-30T06:37:54.122Z,95121.63
2023-05-30T06:40:22.319Z,95133.50
2023-05-30T06:42:50.981Z,95130.22
2023-05-30T06:45:20.987Z,95129.94
2023-05-30T06:47:49.091Z,95138.94
2023-05-30T06:50:17.380Z,95138.41
2023-05-30T06:52:45.772Z,95134.44
2023-05-30T06:55:14.254Z,95129.47
2023-05-30T06:57:42.361Z,95142.47
2023-05-30T07:00:12.885Z,95142.22
2023-05-30T07:02:42.281Z,95134.69
2023-05-30T07:05:10.860Z,95134.97
2023-05-30T07:07:40.646Z,95136.19
2023-05-30T07:10:09.759Z,95135.94
2023-05-30T07:12:38.223Z,95067.22
2023-05-30T07:15:08.105Z,95143.09
2023-05-30T07:17:36.728Z,95134.03
2023-05-30T07:20:07.551Z,95137.34
2023-05-30T07:22:36.028Z,95140.63
2023-05-30T07:25:04.704Z,95140.72
2023-05-30T07:27:33.994Z,95130.06
2023-05-30T07:30:02.302Z,95146.50
2023-05-30T07:32:30.896Z,95135.41
2023-05-30T07:34:59.025Z,95143.41
2023-05-30T07:37:28.860Z,95146.38
2023-05-30T07:39:58.806Z,95135.75
2023-05-30T07:42:29.122Z,95128.63
2023-05-30T07:44:57.851Z,95123.25
2023-05-30T07:47:26.058Z,95133.06
2023-05-30T07:49:54.243Z,95129.09
2023-05-30T07:52:22.479Z,95123.09
2023-05-30T07:54:52.088Z,95132.84
2023-05-30T07:57:20.663Z,95131.00
2023-05-30T07:59:49.891Z,95092.50
2023-05-30T08:02:18.356Z,95136.69
2023-05-30T08:04:46.954Z,95126.94
2023-05-30T08:07:15.286Z,95131.38
2023-05-30T08:09:43.523Z,95065.50
2023-05-30T08:12:18.906Z,95130.22
2023-05-30T08:14:48.166Z,95125.81
2023-05-30T08:17:17.748Z,95128.56
2023-05-30T08:19:46.345Z,95057.28
2023-05-30T08:22:14.506Z,95120.88
2023-05-30T08:24:42.856Z,95133.09
2023-05-30T08:27:11.906Z,95135.06
2023-05-30T08:29:42.419Z,95143.78
2023-05-30T08:32:10.811Z,95146.78
2023-05-30T08:34:40.104Z,95142.53
2023-05-30T08:37:09.191Z,95147.53
2023-05-30T08:39:38.001Z,95150.25
2023-05-30T08:42:07.976Z,95152.00
2023-05-30T08:44:36.862Z,95147.75
2023-05-30T08:47:09.273Z,95138.78
2023-05-30T08:49:41.797Z,95137.53
2023-05-30T08:52:14.674Z,95110.78
2023-05-30T08:54:48.291Z,95137.72
2023-05-30T08:57:24.067Z,95074.63
2023-05-30T08:59:54.427Z,95144.44
2023-05-30T09:02:24.898Z,95095.81
2023-05-30T09:04:57.940Z,95146.50
2023-05-30T09:07:27.608Z,95126.75
2023-05-30T09:09:56.313Z,95149.97
2023-05-30T09:12:26.533Z,95154.69
2023-05-30T09:14:56.786Z,95145.41
2023-05-30T09:17:26.990Z,95148.16
2023-05-30T09:19:56.181Z,95100.56
2023-05-30T09:22:25.214Z,95143.00
2023-05-30T09:24:57.834Z,95158.88
2023-05-30T09:27:27.441Z,95156.94
2023-05-30T09:29:55.692Z,95088.38
2023-05-30T09:32:36.081Z,95134.56
2023-05-30T09:35:07.236Z,95133.06
2023-05-30T09:37:38.629Z,95144.28
2023-05-30T09:40:09.129Z,95142.31
2023-05-30T09:42:44.641Z,95095.19
2023-05-30T09:45:14.083Z,95121.84
2023-05-30T09:47:46.300Z,95128.56
2023-05-30T09:50:16.096Z,95120.59
2023-05-30T09:52:45.532Z,95125.97
2023-05-30T09:55:16.168Z,95125.66
2023-05-30T09:57:48.379Z,95135.25
2023-05-30T10:00:19.446Z,95132.69
2023-05-30T10:02:56.008Z,95101.66
2023-05-30T10:05:27.049Z,95116.44
2023-05-30T10:07:57.205Z,95106.84
2023-05-30T10:10:25.986Z,95116.97
2023-05-30T10:12:55.528Z,95115.25
2023-05-30T10:15:26.106Z,95122.59
2023-05-30T10:18:01.213Z,95112.38
2023-05-30T10:20:30.836Z,95117.22
2023-05-30T10:23:00.997Z,95104.25
2023-05-30T10:25:33.122Z,95120.03
2023-05-30T10:28:03.716Z,95123.25
2023-05-30T10:30:35.091Z,95096.03
2023-05-30T10:33:07.672Z,95109.81
2023-05-30T10:35:37.091Z,95103.09
2023-05-30T10:38:08.630Z,95024.25
2023-05-30T10:40:46.176Z,95108.38
2023-05-30T10:43:38.746Z,95102.81
2023-05-30T10:46:18.798Z,95100.69
2023-05-30T10:48:53.852Z,95104.47
2023-05-30T10:51:22.712Z,95090.84
2023-05-30T10:53:51.374Z,95091.44
2023-05-30T10:56:41.656Z,95096.44
2023-05-30T10:59:16.634Z,95075.41
2023-05-30T11:02:00.217Z,95054.88
2023-05-30T11:04:40.599Z,95074.31
2023-05-30T11:07:13.824Z,95066.34
2023-05-30T11:09:43.596Z,95056.06
2023-05-30T11:12:30.778Z,95062.75
2023-05-30T11:15:00.601Z,95065.28
2023-05-30T11:17:34.251Z,95055.97
2023-05-30T11:20:14.638Z,95049.22
2023-05-30T11:22:43.240Z,95036.78
2023-05-30T11:25:24.589Z,94990.03
2023-05-30T11:28:19.284Z,95038.41
2023-05-30T11:30:52.009Z,94986.56
2023-05-30T11:33:21.018Z,95031.03
2023-05-30T11:35:51.582Z,95030.41
2023-05-30T11:38:21.870Z,95024.63
2023-05-30T11:40:52.419Z,95011.94
2023-05-30T11:43:21.360Z,95015.97
2023-05-30T11:45:58.107Z,94983.56
2023-05-30T11:48:26.913Z,95005.59
2023-05-30T11:50:56.858Z,95011.44
2023-05-30T11:53:25.433Z,95018.97
2023-05-30T11:55:55.533Z,95008.31
2023-05-30T11:58:23.646Z,95002.22
2023-05-30T12:00:52.542Z,95010.88
2023-05-30T12:03:20.871Z,95011.03
2023-05-30T12:05:50.078Z,94989.16
2023-05-30T12:08:20.031Z,94933.00
2023-05-30T12:10:51.459Z,94985.03
2023-05-30T12:13:20.855Z,94980.59
2023-05-30T12:15:49.392Z,94977.81
2023-05-30T12:18:18.509Z,94979.25
2023-05-30T12:20:48.181Z,94981.50
2023-05-30T12:23:16.408Z,94992.59
2023-05-30T12:25:52.505Z,94982.69
2023-05-30T12:28:20.847Z,94963.06
2023-05-30T12:30:49.384Z,94965.50
2023-05-30T12:33:18.701Z,94943.41
2023-05-30T12:35:47.455Z,94891.44
2023-05-30T12:38:17.307Z,94947.03
2023-05-30T12:40:48.554Z,94837.75
2023-05-30T12:43:20.796Z,94951.09
2023-05-30T12:45:51.927Z,94944.91
2023-05-30T12:48:20.572Z,94935.31
2023-05-30T12:50:48.711Z,94933.63
2023-05-30T12:53:17.580Z,94915.63
2023-05-30T12:55:46.023Z,94904.16
2023-05-30T12:58:14.117Z,94861.13
2023-05-30T13:00:44.451Z,94923.28
2023-05-30T13:03:14.211Z,94866.59
2023-05-30T13:05:44.797Z,94913.69
2023-05-30T13:08:13.156Z,94889.44
2023-05-30T13:10:41.285Z,94926.59
2023-05-30T13:13:09.336Z,94913.03
2023-05-30T13:15:37.818Z,94920.44
2023-05-30T13:18:07.760Z,94923.31
2023-05-30T13:20:36.362Z,94926.91
2023-05-30T13:23:04.512Z,94906.88
2023-05-30T13:25:32.961Z,94887.81
2023-05-30T13:28:01.241Z,94902.88
2023-05-30T13:30:29.262Z,94901.41
2023-05-30T13:32:57.399Z,94900.91
2023-05-30T13:35:27.068Z,94898.88
2023-05-30T13:37:55.206Z,94895.72
2023-05-30T13:40:23.357Z,94903.00
2023-05-30T13:42:51.614Z,94886.25
2023-05-30T13:45:21.969Z,94892.59
2023-05-30T13:47:51.817Z,94892.59
2023-05-30T13:50:23.623Z,94896.53
2023-05-30T13:52:53.299Z,94875.25
2023-05-30T13:55:22.110Z,94881.03
2023-05-30T13:57:50.457Z,94867.25
2023-05-30T14:00:19.118Z,94866.03
2023-05-30T14:02:47.400Z,94872.22
2023-05-30T14:05:18.001Z,94838.81
2023-05-30T14:07:47.109Z,94864.63
2023-05-30T14:10:18.533Z,94869.53
2023-05-30T14:12:46.877Z,94817.00
2023-05-30T14:15:16.617Z,94873.91
2023-05-30T14:17:44.857Z,94882.19
2023-05-30T14:20:14.013Z,94883.75
2023-05-30T14:22:42.506Z,94877.19
2023-05-30T14:25:11.532Z,94863.56
2023-05-30T14:27:40.916Z,94879.97
2023-05-30T14:30:14.300Z,94892.34
2023-05-30T14:32:42.613Z,94889.53
2023-05-30T14:35:12.029Z,94887.16
2023-05-30T14:37:40.549Z,94894.78
2023-05-30T14:40:10.830Z,94879.34
2023-05-30T14:42:40.980Z,94888.13
2023-05-30T14:45:11.179Z,94896.63
2023-05-30T14:47:39.315Z,94890.75
2023-05-30T14:50:09.205Z,94889.84
2023-05-30T14:52:37.278Z,94887.63
2023-05-30T14:55:06.186Z,94887.56
2023-05-30T14:57:34.696Z,94892.44
2023-05-30T15:00:04.978Z,94894.56
2023-05-30T15:02:33.950Z,94882.59
2023-05-30T15:05:02.148Z,94896.69
2023-05-30T15:07:31.606Z,94896.63
2023-05-30T15:10:01.372Z,94877.22
2023-05-30T15:12:29.655Z,94882.16
2023-05-30T15:15:04.791Z,94898.47
2023-05-30T15:17:34.778Z,94896.50
2023-05-30T15:20:03.364Z,94894.88
2023-05-30T15:22:31.637Z,94901.41
2023-05-30T15:25:01.635Z,94905.66
2023-05-30T15:27:30.576Z,94909.00
2023-05-30T15:29:59.309Z,94908.41
2023-05-30T15:32:27.575Z,94910.88
2023-05-30T15:34:57.555Z,94900.31
2023-05-30T15:37:26.577Z,94907.97
2023-05-30T15:39:56.226Z,94906.94
2023-05-30T15:42:24.563Z,94861.84
2023-05-30T15:44:53.115Z,94903.53
2023-05-30T15:47:21.229Z,94901.41
2023-05-30T15:49:49.336Z,94904.38
2023-05-30T15:52:18.832Z,94892.94
2023-05-30T15:54:47.070Z,94904.72
2023-05-30T15:57:15.398Z,94897.59
2023-05-30T15:59:43.679Z,94905.44
2023-05-30T16:02:12.354Z,94873.41
2023-05-30T16:04:40.670Z,94890.72
2023-05-30T16:07:08.883Z,94903.97
2023-05-30T16:09:39.717Z,94901.09
2023-05-30T16:12:08.854Z,94911.59
2023-05-30T16:14:37.596Z,94895.03
2023-05-30T16:17:06.268Z,94916.06
2023-05-30T16:19:34.846Z,94874.88
2023-05-30T16:22:02.981Z,94919.56
2023-05-30T16:24:31.340Z,94924.53
2023-05-30T16:27:03.076Z,94925.88
2023-05-30T16:29:31.677Z,94929.69
2023-05-30T16:31:59.958Z,94932.06
2023-05-30T16:34:28.109Z,94927.78
2023-05-30T16:36:56.122Z,94931.06
2023-05-30T16:39:24.782Z,94936.56
2023-05-30T16:41:53.226Z,94944.22
2023-05-30T16:44:22.755Z,94947.59
2023-05-30T16:46:51.273Z,94946.25
2023-05-30T16:49:19.418Z,94942.38
2023-05-30T16:51:47.908Z,94950.41
2023-05-30T16:54:16.528Z,94967.19
2023-05-30T16:56:44.656Z,94969.94
2023-05-30T16:59:12.979Z,94968.88
2023-05-30T17:01:42.578Z,94974.41
2023-05-30T17:04:11.128Z,94980.91
2023-05-30T17:06:39.276Z,94977.91
2023-05-30T17:09:10.133Z,94980.66
2023-05-30T17:11:38.202Z,94945.63
2023-05-30T17:14:06.855Z,94986.22
2023-05-30T17:16:36.003Z,94999.63
2023-05-30T17:19:11.489Z,94995.91
2023-05-30T17:21:40.389Z,94999.00
2023-05-30T17:24:10.446Z,94997.69
2023-05-30T17:26:39.182Z,95014.38
2023-05-30T17:29:08.791Z,95008.06
2023-05-30T17:31:36.915Z,95008.13
2023-05-30T17:34:07.417Z,95013.16
2023-05-30T17:36:36.255Z,95027.56
2023-05-30T17:39:05.854Z,95029.72
2023-05-30T17:41:34.871Z,95032.28
2023-05-30T17:44:03.461Z,95028.16
2023-05-30T17:46:31.501Z,95025.88
2023-05-30T17:48:59.479Z,95030.88
2023-05-30T17:51:29.475Z,95025.75
2023-05-30T17:53:57.494Z,95031.78
2023-05-30T17:56:26.096Z,94968.59
2023-05-30T17:58:54.140Z,95035.59
2023-05-30T18:01:22.486Z,95048.97
2023-05-30T18:03:50.928Z,95043.47
2023-05-30T18:06:27.193Z,95049.88
2023-05-30T18:08:57.785Z,95048.91
2023-05-30T18:11:26.844Z,95058.97
2023-05-30T18:13:55.851Z,95065.50
2023-05-30T18:16:24.521Z,94922.47
2023-05-30T18:18:52.713Z,95063.88
2023-05-30T18:21:21.601Z,95072.16
2023-05-30T18:23:50.205Z,95064.00
2023-05-30T18:26:21.399Z,95075.56
2023-05-30T18:28:49.418Z,95073.03
2023-05-30T18:31:17.862Z,95075.13
2023-05-30T18:33:45.932Z,95087.25
2023-05-30T18:36:15.395Z,95083.63
2023-05-30T18:38:46.953Z,95079.81
2023-05-30T18:41:16.333Z,95088.66
2023-05-30T18:43:48.561Z,95086.34
2023-05-30T18:46:17.478Z,95090.00
2023-05-30T18:48:46.987Z,95092.53
2023-05-30T18:51:15.850Z,95090.22
2023-05-30T18:53:44.347Z,95100.94
2023-05-30T18:56:13.256Z,95101.53
2023-05-30T18:58:43.755Z,95103.31
2023-05-30T19:01:13.499Z,95105.53
2023-05-30T19:03:42.824Z,95113.66
2023-05-30T19:06:13.813Z,95105.19
2023-05-30T19:08:42.174Z,95110.06
2023-05-30T19:11:10.368Z,95108.28
2023-05-30T19:13:39.051Z,95114.03
2023-05-30T19:16:07.648Z,95115.50
2023-05-30T19:18:37.053Z,95120.16
2023-05-30T19:21:05.415Z,95130.53
2023-05-30T19:23:33.671Z,95129.59
2023-05-30T19:26:04.090Z,95131.00
2023-05-30T19:28:38.025Z,95127.53
2023-05-30T19:31:11.692Z,95127.16
2023-05-30T19:33:42.728Z,95133.63
2023-05-30T19:36:11.356Z,95144.13
2023-05-30T19:38:40.193Z,95140.97
2023-05-30T19:41:08.631Z,95137.06
2023-05-30T19:43:37.074Z,95125.53
2023-05-30T19:46:07.792Z,95136.19
2023-05-30T19:48:36.336Z,95074.72
2023-05-30T19:51:06.252Z,95139.03
2023-05-30T19:53:34.477Z,95134.72
2023-05-30T19:56:05.216Z,95127.34
2023-05-30T19:58:34.778Z,95129.50
2023-05-30T20:01:03.252Z,95134.09
2023-05-30T20:03:31.602Z,95124.03
2023-05-30T20:05:59.807Z,95122.63
2023-05-30T20:08:29.649Z,95140.84
2023-05-30T20:10:59.218Z,95135.25
2023-05-30T20:13:27.328Z,95142.28
2023-05-30T20:16:02.020Z,95042.28
2023-05-30T20:18:30.066Z,95150.31
2023-05-30T20:20:58.429Z,95142.84
2023-05-30T20:23:27.013Z,95150.09
2023-05-30T20:25:57.029Z,95152.06
2023-05-30T20:28:25.179Z,95147.88
2023-05-30T20:30:55.193Z,95160.84
2023-05-30T20:33:23.731Z,95147.88
2023-05-30T20:35:51.720Z,95131.00
2023-05-30T20:38:19.857Z,95142.44
2023-05-30T20:40:48.018Z,95152.88
2023-05-30T20:43:17.933Z,95166.19
2023-05-30T20:45:46.200Z,95150.97
2023-05-30T20:48:14.396Z,95162.41
2023-05-30T20:50:42.300Z,95157.44
2023-05-30T20:53:12.860Z,95115.59
2023-05-30T20:55:42.446Z,95149.22
2023-05-30T20:58:10.978Z,95163.69
2023-05-30T21:00:40.681Z,95154.97
2023-05-30T21:03:09.145Z,95156.00
2023-05-30T21:05:37.406Z,95152.47
2023-05-30T21:08:05.687Z,95166.44
2023-05-30T21:10:34.030Z,95156.00
2023-05-30T21:13:02.272Z,95160.25
2023-05-30T21:15:30.468Z,95155.28
2023-05-30T21:18:00.224Z,95150.28
2023-05-30T21:20:28.474Z,95149.03
2023-05-30T21:22:58.197Z,95158.47
2023-05-30T21:25:26.485Z,95161.00
2023-05-30T21:27:54.701Z,95165.47
2023-05-30T21:30:23.708Z,95166.22
2023-05-30T21:32:52.702Z,95170.97
2023-05-30T21:35:22.468Z,95165.00
2023-05-30T21:37:50.992Z,95173.72
2023-05-30T21:40:19.178Z,95169.94
2023-05-30T21:42:47.385Z,95164.47
2023-05-30T21:45:15.709Z,95164.47
2023-05-30T21:47:44.208Z,95177.44
2023-05-30T21:50:12.854Z,95160.00
2023-05-30T21:52:42.791Z,95158.25
2023-05-30T21:55:11.713Z,95162.47
2023-05-30T21:57:39.740Z,95163.47
2023-05-30T22:00:10.183Z,95162.47
2023-05-30T22:02:38.535Z,95159.50
2023-05-30T22:05:08.179Z,95158.25
2023-05-30T22:07:36.253Z,95153.25
2023-05-30T22:10:07.142Z,95150.78
2023-05-30T22:12:35.330Z,95144.03
2023-05-30T22:15:04.019Z,95146.56
2023-05-30T22:17:40.929Z,95141.78
2023-05-30T22:20:10.597Z,95150.78
2023-05-30T22:22:39.493Z,95143.53
2023-05-30T22:25:10.204Z,95147.50
2023-05-30T22:27:38.224Z,95133.06
2023-05-30T22:30:09.979Z,95153.25
2023-05-30T22:32:38.261Z,95154.75
2023-05-30T22:35:07.381Z,95153.50
2023-05-30T22:37:36.335Z,95154.00
2023-05-30T22:40:05.195Z,95151.72
2023-05-30T22:42:35.149Z,95110.78
2023-05-30T22:45:03.611Z,95149.47
2023-05-30T22:47:31.892Z,95150.84
2023-05-30T22:50:00.548Z,95148.31
2023-05-30T22:52:28.766Z,95159.91
2023-05-30T22:54:57.536Z,95154.03
2023-05-30T22:57:25.765Z,95157.44
2023-05-30T22:59:55.686Z,95158.59
2023-05-30T23:02:23.851Z,95156.09
2023-05-30T23:04:51.870Z,95154.81
2023-05-30T23:07:19.920Z,95143.38
2023-05-30T23:09:48.023Z,95150.84
2023-05-30T23:12:16.384Z,95156.81
2023-05-30T23:14:44.592Z,95153.31
2023-05-30T23:17:14.538Z,95159.56
2023-05-30T23:19:42.704Z,95148.00
2023-05-30T23:22:11.371Z,95161.44
2023-05-30T23:24:39.511Z,95165.69
2023-05-30T23:27:07.897Z,95172.91
2023-05-30T23:29:36.026Z,95167.16
2023-05-30T23:32:04.373Z,95166.47
2023-05-30T23:34:34.089Z,95164.72
2023-05-30T23:37:02.144Z,95161.00
2023-05-30T23:39:30.428Z,95157.81
2023-05-30T23:41:58.816Z,95158.84
2023-05-30T23:44:27.330Z,95153.16
2023-05-30T23:46:55.663Z,95157.66
2023-05-30T23:49:23.893Z,95136.97
2023-05-30T23:51:53.430Z,95162.84
2023-05-30T23:54:22.443Z,95164.34
2023-05-30T23:56:50.520Z,95158.34
2023-05-30T23:59:18.913Z,95163.81
